createdAt,value
2019-03-20T00:02:10.037Z,31.47
2019-03-20T00:04:36.611Z,31.70
2019-03-20T00:07:03.194Z,28.70
2019-03-20T00:09:29.767Z,28.60
2019-03-20T00:11:56.341Z,32.60
2019-03-20T00:14:22.924Z,31.03
2019-03-20T00:16:49.498Z,32.80
2019-03-20T00:19:16.083Z,30.63
2019-03-20T00:21:42.662Z,30.40
2019-03-20T00:24:09.239Z,33.93
2019-03-20T00:26:35.815Z,32.40
2019-03-20T00:29:02.394Z,26.43
2019-03-20T00:31:28.978Z,28.67
2019-03-20T00:33:55.544Z,29.43
2019-03-20T00:36:22.127Z,34.17
2019-03-20T00:38:48.710Z,30.90
2019-03-20T00:41:15.393Z,29.07
2019-03-20T00:43:41.970Z,32.37
2019-03-20T00:46:08.552Z,33.03
2019-03-20T00:48:35.125Z,32.43
2019-03-20T00:51:01.721Z,32.80
2019-03-20T00:53:28.296Z,28.17
2019-03-20T00:55:54.897Z,31.17
2019-03-20T00:58:21.476Z,31.73
2019-03-20T01:00:48.087Z,31.60
2019-03-20T01:03:14.663Z,31.43
2019-03-20T01:05:41.262Z,31.60
2019-03-20T01:08:07.835Z,32.67
2019-03-20T01:10:34.500Z,29.77
2019-03-20T01:13:01.110Z,30.20
2019-03-20T01:15:27.677Z,32.10
2019-03-20T01:17:54.249Z,31.70
2019-03-20T01:20:20.820Z,27.17
2019-03-20T01:22:47.516Z,31.50
2019-03-20T01:25:14.102Z,30.03
2019-03-20T01:27:40.709Z,28.57
2019-03-20T01:30:07.337Z,29.90
2019-03-20T01:32:33.988Z,29.43
2019-03-20T01:35:00.583Z,29.87
2019-03-20T01:37:27.183Z,29.30
2019-03-20T01:39:53.777Z,30.33
2019-03-20T01:42:20.408Z,27.30
2019-03-20T01:44:46.986Z,28.73
2019-03-20T01:47:13.599Z,28.07
2019-03-20T01:49:40.179Z,30.13
2019-03-20T01:52:06.849Z,30.70
2019-03-20T01:54:33.549Z,28.47
2019-03-20T01:57:00.157Z,31.17
2019-03-20T01:59:26.732Z,31.37
2019-03-20T02:01:53.344Z,32.73
2019-03-20T02:04:19.922Z,31.80
2019-03-20T02:06:46.537Z,31.67
2019-03-20T02:09:13.123Z,30.00
2019-03-20T02:11:39.711Z,30.00
2019-03-20T02:14:06.292Z,30.23
2019-03-20T02:16:32.909Z,27.90
2019-03-20T02:18:59.492Z,28.53
2019-03-20T02:21:26.079Z,25.83
2019-03-20T02:23:52.665Z,29.40
2019-03-20T02:26:19.261Z,30.70
2019-03-20T02:28:45.914Z,26.90
2019-03-20T02:31:12.540Z,24.47
2019-03-20T02:33:39.190Z,27.03
2019-03-20T02:36:05.805Z,27.57
2019-03-20T02:38:32.390Z,27.30
2019-03-20T02:40:58.945Z,28.73
2019-03-20T02:43:25.510Z,30.23
2019-03-20T02:45:52.092Z,30.37
2019-03-20T02:48:18.668Z,28.43
2019-03-20T02:50:45.245Z,28.07
2019-03-20T02:53:11.817Z,27.77
2019-03-20T02:55:38.424Z,25.13
2019-03-20T02:58:05.073Z,27.90
2019-03-20T03:00:31.702Z,26.47
2019-03-20T03:02:58.281Z,27.87
2019-03-20T03:05:24.857Z,25.50
2019-03-20T03:07:51.430Z,29.97
2019-03-20T03:10:18.031Z,29.77
2019-03-20T03:12:44.672Z,30.90
2019-03-20T03:15:11.246Z,28.40
2019-03-20T03:17:37.867Z,28.93
2019-03-20T03:20:04.517Z,30.10
2019-03-20T03:22:31.119Z,29.80
2019-03-20T03:24:57.693Z,30.60
2019-03-20T03:27:24.304Z,33.27
2019-03-20T03:29:50.866Z,31.40
2019-03-20T03:32:17.578Z,31.27
2019-03-20T03:34:44.159Z,33.33
2019-03-20T03:37:10.743Z,32.33
2019-03-20T03:39:37.334Z,32.17
2019-03-20T03:42:03.923Z,28.33
2019-03-20T03:44:30.514Z,31.27
2019-03-20T03:46:57.131Z,31.97
2019-03-20T03:49:23.699Z,33.00
2019-03-20T03:51:50.292Z,31.70
2019-03-20T03:54:16.862Z,30.67
2019-03-20T03:56:43.473Z,30.63
2019-03-20T03:59:10.050Z,30.20
2019-03-20T04:01:36.652Z,27.87
2019-03-20T04:04:03.227Z,31.53
2019-03-20T04:06:35.536Z,28.73
2019-03-20T04:08:58.094Z,30.00
2019-03-20T04:11:24.674Z,31.87
2019-03-20T04:13:51.254Z,33.53
2019-03-20T04:16:17.819Z,29.83
2019-03-20T04:18:44.402Z,31.63
2019-03-20T04:21:10.986Z,31.87
2019-03-20T04:23:37.561Z,29.60
2019-03-20T04:26:04.139Z,29.07
2019-03-20T04:28:30.770Z,30.40
2019-03-20T04:30:57.369Z,27.03
2019-03-20T04:33:23.949Z,26.87
2019-03-20T04:35:50.530Z,25.93
2019-03-20T04:38:17.208Z,24.87
2019-03-20T04:40:43.795Z,23.87
2019-03-20T04:43:10.371Z,27.63
2019-03-20T04:45:36.953Z,28.10
2019-03-20T04:48:03.529Z,26.07
2019-03-20T04:50:30.108Z,27.10
2019-03-20T04:52:56.672Z,29.13
2019-03-20T04:55:23.239Z,28.33
2019-03-20T04:57:49.822Z,29.40
2019-03-20T05:00:16.439Z,29.73
2019-03-20T05:02:43.052Z,27.43
2019-03-20T05:05:09.615Z,26.60
2019-03-20T05:07:36.231Z,33.50
2019-03-20T05:10:02.807Z,32.73
2019-03-20T05:12:29.398Z,30.93
2019-03-20T05:14:55.970Z,32.63
2019-03-20T05:17:22.572Z,30.40
2019-03-20T05:19:49.148Z,31.13
2019-03-20T05:22:15.755Z,34.00
2019-03-20T05:24:42.328Z,32.47
2019-03-20T05:27:08.905Z,33.83
2019-03-20T05:29:35.501Z,32.03
2019-03-20T05:32:02.133Z,33.93
2019-03-20T05:34:28.706Z,35.63
2019-03-20T05:36:55.278Z,33.93
2019-03-20T05:39:21.870Z,34.40
2019-03-20T05:41:48.444Z,30.97
2019-03-20T05:44:15.021Z,29.67
2019-03-20T05:46:41.589Z,31.53
2019-03-20T05:49:08.166Z,31.20
2019-03-20T05:51:34.756Z,30.90
2019-03-20T05:54:01.318Z,32.57
2019-03-20T05:56:27.888Z,30.97
2019-03-20T05:58:54.468Z,32.10
2019-03-20T06:01:21.061Z,30.93
2019-03-20T06:03:47.636Z,32.97
2019-03-20T06:06:14.220Z,34.70
2019-03-20T06:08:40.804Z,31.80
2019-03-20T06:11:07.492Z,34.23
2019-03-20T06:13:34.061Z,32.10
2019-03-20T06:16:00.634Z,36.40
2019-03-20T06:18:27.255Z,35.27
2019-03-20T06:20:53.836Z,33.60
2019-03-20T06:23:20.461Z,34.70
2019-03-20T06:25:47.031Z,34.53
2019-03-20T06:28:13.646Z,30.43
2019-03-20T06:30:40.229Z,33.90
2019-03-20T06:33:07.096Z,34.57
2019-03-20T06:35:33.714Z,34.83
2019-03-20T06:38:00.326Z,33.57
2019-03-20T06:40:26.892Z,35.67
2019-03-20T06:42:55.284Z,37.57
2019-03-20T06:45:21.791Z,35.13
2019-03-20T06:47:48.396Z,43.10
2019-03-20T06:50:14.965Z,41.03
2019-03-20T06:52:41.576Z,40.53
2019-03-20T06:55:08.154Z,43.40
2019-03-20T06:57:34.739Z,40.17
2019-03-20T07:00:01.322Z,36.87
2019-03-20T07:02:27.888Z,40.20
2019-03-20T07:04:54.549Z,36.97
2019-03-20T07:07:21.118Z,36.47
2019-03-20T07:09:47.713Z,35.40
2019-03-20T07:12:14.286Z,36.03
2019-03-20T07:14:40.861Z,34.77
2019-03-20T07:17:07.448Z,30.53
2019-03-20T07:19:34.155Z,31.40
2019-03-20T07:22:00.728Z,32.40
2019-03-20T07:24:27.324Z,30.90
2019-03-20T07:26:53.899Z,30.73
2019-03-20T07:29:20.496Z,28.60
2019-03-20T07:31:47.070Z,31.83
2019-03-20T07:34:13.719Z,30.33
2019-03-20T07:36:40.313Z,31.10
2019-03-20T07:39:06.895Z,32.20
2019-03-20T07:41:33.469Z,38.30
2019-03-20T07:44:00.068Z,35.33
2019-03-20T07:46:26.645Z,36.15
2019-03-20T07:48:53.246Z,37.10
2019-03-20T07:51:19.828Z,32.70
2019-03-20T07:53:46.469Z,34.55
2019-03-20T07:56:13.085Z,31.77
2019-03-20T07:58:39.674Z,31.40
2019-03-20T08:01:06.250Z,31.20
2019-03-20T08:03:32.863Z,32.55
2019-03-20T08:05:59.438Z,28.77
2019-03-20T08:08:26.059Z,25.55
2019-03-20T08:10:52.631Z,27.42
2019-03-20T08:13:19.252Z,29.07
2019-03-20T08:15:45.840Z,23.95
2019-03-20T08:18:12.411Z,24.32
2019-03-20T08:20:38.981Z,21.45
2019-03-20T08:23:05.551Z,18.75
2019-03-20T08:25:32.135Z,17.10
2019-03-20T08:27:58.716Z,17.95
2019-03-20T08:30:25.286Z,23.75
2019-03-20T08:32:51.865Z,18.90
2019-03-20T08:35:18.492Z,15.45
2019-03-20T08:37:45.065Z,15.40
2019-03-20T08:40:11.645Z,13.25
2019-03-20T08:42:38.217Z,10.18
2019-03-20T08:45:04.802Z,10.05
2019-03-20T08:47:31.380Z,12.03
2019-03-20T08:49:57.959Z,14.55
2019-03-20T08:52:24.536Z,15.18
2019-03-20T08:54:51.118Z,13.18
2019-03-20T08:57:17.690Z,8.98
2019-03-20T08:59:44.277Z,10.00
2019-03-20T09:02:10.867Z,9.35
2019-03-20T09:04:37.426Z,9.03
2019-03-20T09:07:04.004Z,9.50
2019-03-20T09:09:30.582Z,10.70
2019-03-20T09:11:57.165Z,10.43
2019-03-20T09:14:23.744Z,9.73
2019-03-20T09:16:50.319Z,11.08
2019-03-20T09:19:16.907Z,11.95
2019-03-20T09:21:43.489Z,10.95
2019-03-20T09:24:10.062Z,9.28
2019-03-20T09:26:36.638Z,9.73
2019-03-20T09:29:03.238Z,11.50
2019-03-20T09:31:29.822Z,13.10
2019-03-20T09:33:56.484Z,10.82
2019-03-20T09:36:23.188Z,10.55
2019-03-20T09:38:49.805Z,8.08
2019-03-20T09:41:16.380Z,10.25
2019-03-20T09:43:43.018Z,10.85
2019-03-20T09:46:09.595Z,10.25
2019-03-20T09:48:36.170Z,9.60
2019-03-20T09:51:02.778Z,8.48
2019-03-20T09:53:29.368Z,9.48
2019-03-20T09:55:55.976Z,9.43
2019-03-20T09:58:22.558Z,11.10
2019-03-20T10:00:49.167Z,9.10
2019-03-20T10:03:15.751Z,8.05
2019-03-20T10:05:42.358Z,7.12
2019-03-20T10:08:09.006Z,7.15
2019-03-20T10:10:35.661Z,8.50
2019-03-20T10:13:02.338Z,9.45
2019-03-20T10:15:28.931Z,8.40
2019-03-20T10:17:55.513Z,8.30
2019-03-20T10:20:22.116Z,9.00
2019-03-20T10:22:48.693Z,9.90
2019-03-20T10:25:15.302Z,10.23
2019-03-20T10:27:41.884Z,9.18
2019-03-20T10:30:08.516Z,7.83
2019-03-20T10:32:35.088Z,10.93
2019-03-20T10:35:01.699Z,9.53
2019-03-20T10:37:28.270Z,10.08
2019-03-20T10:39:54.871Z,10.00
2019-03-20T10:42:21.447Z,9.05
2019-03-20T10:44:48.068Z,9.45
2019-03-20T10:47:14.643Z,11.45
2019-03-20T10:49:41.256Z,11.35
2019-03-20T10:52:07.849Z,8.53
2019-03-20T10:54:34.465Z,8.90
2019-03-20T10:57:01.131Z,7.33
2019-03-20T10:59:27.736Z,8.55
2019-03-20T11:01:54.318Z,9.95
2019-03-20T11:04:20.926Z,9.58
2019-03-20T11:06:47.502Z,12.30
2019-03-20T11:09:18.580Z,11.40
2019-03-20T11:11:42.395Z,12.05
2019-03-20T11:14:08.971Z,10.80
2019-03-20T11:16:35.565Z,11.28
2019-03-20T11:19:02.220Z,11.05
2019-03-20T11:21:28.799Z,9.13
2019-03-20T11:23:55.392Z,8.03
2019-03-20T11:26:21.972Z,7.30
2019-03-20T11:28:48.543Z,6.78
2019-03-20T11:31:15.134Z,10.82
2019-03-20T11:33:41.701Z,4.95
2019-03-20T11:36:08.277Z,4.42
2019-03-20T11:38:34.930Z,5.05
2019-03-20T11:41:01.519Z,6.08
2019-03-20T11:43:28.092Z,6.33
2019-03-20T11:45:54.687Z,8.20
2019-03-20T11:48:21.242Z,7.33
2019-03-20T11:50:47.863Z,7.00
2019-03-20T11:53:14.442Z,8.33
2019-03-20T11:55:41.017Z,8.48
2019-03-20T11:58:09.842Z,6.30
2019-03-20T12:00:36.443Z,5.28
2019-03-20T12:03:03.015Z,3.95
2019-03-20T12:05:29.606Z,5.22
2019-03-20T12:07:56.186Z,6.95
2019-03-20T12:10:22.779Z,6.95
2019-03-20T12:12:49.358Z,5.30
2019-03-20T12:15:15.983Z,6.55
2019-03-20T12:17:42.583Z,6.10
2019-03-20T12:20:09.200Z,6.95
2019-03-20T12:22:35.814Z,5.83
2019-03-20T12:25:02.441Z,4.53
2019-03-20T12:27:29.025Z,5.50
2019-03-20T12:29:55.613Z,9.00
2019-03-20T12:32:22.189Z,10.80
2019-03-20T12:34:48.764Z,9.08
2019-03-20T12:37:15.344Z,15.88
2019-03-20T12:39:52.634Z,5.90
2019-03-20T12:42:10.215Z,7.40
2019-03-20T12:44:36.789Z,7.40
2019-03-20T12:47:03.372Z,7.30
2019-03-20T12:49:29.956Z,6.45
2019-03-20T12:51:56.583Z,6.72
2019-03-20T12:54:23.208Z,6.87
2019-03-20T12:56:49.784Z,7.10
2019-03-20T12:59:16.366Z,6.00
2019-03-20T13:01:42.937Z,6.25
2019-03-20T13:04:09.525Z,5.28
2019-03-20T13:06:36.089Z,4.97
2019-03-20T13:09:03.779Z,8.73
2019-03-20T13:11:30.496Z,7.90
2019-03-20T13:13:57.086Z,9.70
2019-03-20T13:16:23.663Z,5.87
2019-03-20T13:18:50.251Z,6.05
2019-03-20T13:21:16.822Z,7.22
2019-03-20T13:23:43.404Z,7.92
2019-03-20T13:26:09.977Z,6.87
2019-03-20T13:28:36.562Z,7.03
2019-03-20T13:31:03.155Z,5.37
2019-03-20T13:33:29.771Z,5.28
2019-03-20T13:35:56.391Z,4.37
2019-03-20T13:38:22.965Z,9.05
2019-03-20T13:40:49.541Z,6.28
2019-03-20T13:43:16.148Z,6.83
2019-03-20T13:45:42.714Z,8.33
2019-03-20T13:48:09.314Z,10.00
2019-03-20T13:50:35.935Z,16.57
2019-03-20T13:53:02.508Z,13.68
2019-03-20T13:55:29.123Z,6.83
2019-03-20T13:57:55.706Z,5.28
2019-03-20T14:00:22.310Z,6.12
2019-03-20T14:02:48.924Z,6.97
2019-03-20T14:05:15.505Z,7.55
2019-03-20T14:07:42.130Z,7.00
2019-03-20T14:10:08.709Z,6.90
2019-03-20T14:12:35.311Z,13.88
2019-03-20T14:15:01.881Z,7.75
2019-03-20T14:17:28.473Z,7.05
2019-03-20T14:19:55.051Z,19.20
2019-03-20T14:22:21.676Z,8.03
2019-03-20T14:24:48.256Z,5.03
2019-03-20T14:27:14.847Z,5.75
2019-03-20T14:29:41.420Z,7.17
2019-03-20T14:32:08.006Z,12.40
2019-03-20T14:34:34.582Z,5.20
2019-03-20T14:37:01.180Z,7.72
2019-03-20T14:39:27.749Z,5.22
2019-03-20T14:41:54.340Z,4.70
2019-03-20T14:44:20.903Z,3.92
2019-03-20T14:46:47.499Z,5.33
2019-03-20T14:49:14.070Z,5.00
2019-03-20T14:51:40.694Z,4.08
2019-03-20T14:54:07.337Z,5.08
2019-03-20T14:56:33.950Z,5.65
2019-03-20T14:59:00.530Z,8.03
2019-03-20T15:01:27.190Z,5.87
2019-03-20T15:03:53.759Z,5.30
2019-03-20T15:06:20.383Z,8.48
2019-03-20T15:08:46.958Z,7.70
2019-03-20T15:11:13.559Z,6.58
2019-03-20T15:13:40.143Z,11.50
2019-03-20T15:16:06.743Z,17.55
2019-03-20T15:18:33.326Z,9.73
2019-03-20T15:20:59.896Z,8.53
2019-03-20T15:23:26.478Z,7.42
2019-03-20T15:25:53.112Z,8.18
2019-03-20T15:28:19.685Z,7.40
2019-03-20T15:30:46.253Z,6.55
2019-03-20T15:33:12.830Z,6.85
2019-03-20T15:38:23.810Z,7.50
2019-03-20T15:40:56.196Z,11.78
2019-03-20T15:43:18.707Z,10.32
2019-03-20T15:45:45.284Z,8.43
2019-03-20T15:48:11.879Z,8.55
2019-03-20T15:50:38.477Z,6.92
2019-03-20T15:53:05.088Z,7.47
2019-03-20T15:55:31.666Z,9.03
2019-03-20T15:57:58.292Z,10.25
2019-03-20T16:00:24.857Z,8.48
2019-03-20T16:02:51.461Z,7.85
2019-03-20T16:05:18.035Z,10.15
2019-03-20T16:07:44.652Z,9.05
2019-03-20T16:10:11.229Z,14.15
2019-03-20T16:12:37.842Z,11.22
2019-03-20T16:15:04.471Z,9.40
2019-03-20T16:17:31.066Z,8.68
2019-03-20T16:19:57.642Z,15.95
2019-03-20T16:22:24.251Z,15.45
2019-03-20T16:24:50.822Z,10.72
2019-03-20T16:27:17.424Z,10.13
2019-03-20T16:29:43.997Z,12.20
2019-03-20T16:32:11.730Z,16.45
2019-03-20T16:34:38.349Z,11.63
2019-03-20T16:37:05.067Z,22.40
2019-03-20T16:39:31.645Z,12.13
2019-03-20T16:41:58.259Z,8.30
2019-03-20T16:44:24.840Z,8.68
2019-03-20T16:46:51.452Z,10.05
2019-03-20T16:49:18.032Z,10.03
2019-03-20T16:51:44.633Z,12.43
2019-03-20T16:54:11.381Z,14.60
2019-03-20T16:56:38.000Z,14.73
2019-03-20T16:59:04.601Z,20.97
2019-03-20T17:01:31.242Z,33.18
2019-03-20T17:03:57.816Z,31.25
2019-03-20T17:06:24.405Z,29.07
2019-03-20T17:08:50.983Z,27.50
2019-03-20T17:11:27.448Z,27.02
2019-03-20T17:13:45.869Z,23.67
2019-03-20T17:16:12.462Z,23.30
2019-03-20T17:18:39.031Z,29.63
2019-03-20T17:21:05.598Z,26.33
2019-03-20T17:23:32.185Z,28.87
2019-03-20T17:25:58.766Z,29.57
2019-03-20T17:28:25.344Z,28.38
2019-03-20T17:30:53.064Z,23.90
2019-03-20T17:33:19.640Z,23.65
2019-03-20T17:35:46.220Z,26.52
2019-03-20T17:38:12.798Z,25.72
2019-03-20T17:40:39.383Z,27.40
2019-03-20T17:43:05.966Z,24.20
2019-03-20T17:45:32.534Z,27.07
2019-03-20T17:47:59.106Z,46.42
2019-03-20T17:50:25.693Z,49.58
2019-03-20T17:52:52.299Z,43.98
2019-03-20T17:55:18.873Z,46.55
2019-03-20T17:57:45.637Z,48.58
2019-03-20T18:00:12.211Z,46.70
2019-03-20T18:02:40.237Z,47.70
2019-03-20T18:05:06.814Z,42.50
2019-03-20T18:07:35.312Z,45.05
2019-03-20T18:10:01.730Z,53.73
2019-03-20T18:12:29.244Z,51.30
2019-03-20T18:14:55.857Z,50.88
2019-03-20T18:17:22.460Z,50.25
2019-03-20T18:19:49.045Z,47.27
2019-03-20T18:22:15.650Z,48.30
2019-03-20T18:24:42.226Z,61.42
2019-03-20T18:27:08.809Z,61.77
2019-03-20T18:29:35.372Z,58.52
2019-03-20T18:32:01.954Z,54.55
2019-03-20T18:34:28.519Z,57.60
2019-03-20T18:36:55.106Z,51.53
2019-03-20T18:39:21.671Z,55.85
2019-03-20T18:41:57.354Z,61.73
2019-03-20T18:44:16.562Z,56.70
2019-03-20T18:46:43.135Z,53.28
2019-03-20T18:49:09.728Z,55.70
2019-03-20T18:51:36.321Z,55.00
2019-03-20T18:54:02.892Z,54.67
2019-03-20T18:56:29.540Z,55.30
2019-03-20T18:58:56.114Z,62.48
2019-03-20T19:01:22.693Z,64.17
2019-03-20T19:03:49.347Z,54.25
2019-03-20T19:06:15.918Z,56.18
2019-03-20T19:08:42.599Z,56.75
2019-03-20T19:11:09.326Z,57.50
2019-03-20T19:13:36.076Z,56.33
2019-03-20T19:16:02.651Z,56.48
2019-03-20T19:18:29.239Z,54.13
2019-03-20T19:20:55.808Z,53.60
2019-03-20T19:23:22.387Z,49.95
2019-03-20T19:25:48.968Z,56.70
2019-03-20T19:28:16.466Z,51.55
2019-03-20T19:30:43.037Z,56.85
2019-03-20T19:33:09.619Z,53.95
2019-03-20T19:35:36.240Z,51.90
2019-03-20T19:38:02.823Z,57.20
2019-03-20T19:40:29.410Z,48.68
2019-03-20T19:42:56.053Z,59.95
2019-03-20T19:45:22.641Z,56.80
2019-03-20T19:47:49.210Z,55.15
2019-03-20T19:50:15.803Z,46.42
2019-03-20T19:52:42.448Z,47.07
2019-03-20T19:55:09.166Z,50.80
2019-03-20T19:57:35.818Z,54.67
2019-03-20T20:00:02.398Z,45.33
2019-03-20T20:02:28.988Z,48.20
2019-03-20T20:04:55.571Z,45.60
2019-03-20T20:07:22.143Z,47.50
2019-03-20T20:09:48.793Z,44.97
2019-03-20T20:12:15.374Z,48.67
2019-03-20T20:14:41.967Z,48.52
2019-03-20T20:17:08.556Z,50.93
2019-03-20T20:19:35.138Z,45.20
2019-03-20T20:22:01.713Z,51.33
2019-03-20T20:24:28.315Z,49.17
2019-03-20T20:26:54.899Z,53.63
2019-03-20T20:29:21.678Z,53.25
2019-03-20T20:31:48.244Z,50.63
2019-03-20T20:34:14.824Z,48.63
2019-03-20T20:36:41.391Z,45.13
2019-03-20T20:39:08.016Z,49.13
2019-03-20T20:41:34.595Z,57.50
2019-03-20T20:44:01.167Z,52.43
2019-03-20T20:46:27.745Z,48.80
2019-03-20T20:48:54.482Z,49.83
2019-03-20T20:51:21.122Z,52.48
2019-03-20T20:53:47.729Z,53.42
2019-03-20T20:56:14.313Z,51.93
2019-03-20T20:58:40.908Z,53.10
2019-03-20T21:01:07.480Z,48.63
2019-03-20T21:03:34.116Z,46.77
2019-03-20T21:06:00.695Z,49.90
2019-03-20T21:08:28.598Z,44.00
2019-03-20T21:10:55.173Z,52.07
2019-03-20T21:13:21.792Z,48.23
2019-03-20T21:15:48.363Z,49.63
2019-03-20T21:18:15.033Z,50.03
2019-03-20T21:20:41.635Z,52.23
2019-03-20T21:23:08.196Z,51.07
2019-03-20T21:25:34.830Z,50.00
2019-03-20T21:28:01.399Z,48.60
2019-03-20T21:30:28.040Z,56.50
2019-03-20T21:32:54.617Z,50.27
2019-03-20T21:35:21.220Z,52.00
2019-03-20T21:37:47.794Z,56.23
2019-03-20T21:40:14.389Z,57.90
2019-03-20T21:42:40.967Z,59.40
2019-03-20T21:45:07.628Z,55.27
2019-03-20T21:47:34.285Z,62.93
2019-03-20T21:50:00.871Z,57.47
2019-03-20T21:52:27.463Z,58.73
2019-03-20T21:54:54.019Z,60.73
2019-03-20T21:57:20.654Z,45.47
2019-03-20T21:59:47.208Z,47.70
2019-03-20T22:02:13.808Z,44.87
2019-03-20T22:04:40.384Z,41.77
2019-03-20T22:07:06.963Z,44.27
2019-03-20T22:09:33.596Z,40.60
2019-03-20T22:12:00.287Z,38.93
2019-03-20T22:14:26.880Z,36.93
2019-03-20T22:16:53.458Z,37.30
2019-03-20T22:19:20.049Z,41.50
2019-03-20T22:21:46.633Z,37.60
2019-03-20T22:24:13.227Z,38.57
2019-03-20T22:26:39.804Z,38.83
2019-03-20T22:29:06.461Z,32.87
2019-03-20T22:31:33.035Z,37.63
2019-03-20T22:33:59.607Z,33.17
2019-03-20T22:36:26.228Z,34.43
2019-03-20T22:38:52.810Z,39.70
2019-03-20T22:41:19.411Z,36.23
2019-03-20T22:43:45.990Z,35.80
2019-03-20T22:46:12.613Z,37.13
2019-03-20T22:48:39.176Z,37.60
2019-03-20T22:51:05.797Z,38.40
2019-03-20T22:53:32.372Z,38.70
2019-03-20T22:55:59.064Z,38.00
2019-03-20T22:58:25.642Z,33.10
2019-03-20T23:00:52.257Z,31.07
2019-03-20T23:03:18.838Z,33.10
2019-03-20T23:05:45.452Z,34.83
2019-03-20T23:08:12.034Z,32.57
2019-03-20T23:10:38.601Z,32.47
2019-03-20T23:13:05.186Z,32.97
2019-03-20T23:15:31.757Z,32.40
2019-03-20T23:17:58.376Z,33.17
2019-03-20T23:20:24.938Z,34.43
2019-03-20T23:22:52.059Z,30.87
2019-03-20T23:25:18.628Z,30.17
2019-03-20T23:27:45.218Z,30.97
2019-03-20T23:30:11.789Z,32.10
2019-03-20T23:32:38.389Z,32.40
2019-03-20T23:35:04.966Z,30.13
2019-03-20T23:37:32.641Z,31.77
2019-03-20T23:39:59.210Z,30.07
2019-03-20T23:42:25.803Z,26.63
2019-03-20T23:44:52.372Z,28.37
2019-03-20T23:47:18.975Z,27.10
2019-03-20T23:49:45.549Z,27.27
2019-03-20T23:52:12.137Z,26.57
2019-03-20T23:54:38.713Z,27.97
2019-03-20T23:57:05.301Z,28.10
2019-03-20T23:59:31.877Z,26.57
